Aérodrome :
LOGIN :

S'inscrire | Disclaimer

   EN    FR    IT 

 










Légende :    VFR   VFR Marginal   IFR   IFR Intensif   IFR Très Intensif
Visi : 
Plafond : 
>= 8 km
>= 3000ft
5 à 8 km
1000 à 3000 ft
1500m à 5 km
500 à 1000 ft
800 à 1500m
200 à 500 ft
< 800m
< 200 ft
Symboles :   Orages  Brouillard  Fortes neiges  Fortes précipitations  Vent > 20 kt
SIGMETs :   Divers  Orages  Givrage  Turbulence  Onde Orograph.  Cendres Volcan.







- Altitude de l'aérodrome : 138 ft
- Code IATA : BIO


LEBB - Bilbao

DERNIER METAR :
  • 251000Z 35005KT 320V030 6000 FEW009 SCT012 BKN018 15/13 Q1023 TEMPO 3000 BR

METARs EXPIRÉS :
  • 250930Z 32004KT 280V360 6000 SCT007 BKN017 15/13 Q1023 TEMPO 3000 BR
  • 250900Z VRB01KT 7000 SCT008 BKN017 15/14 Q1023 TEMPO 3000 BR
  • 250830Z VRB02KT 7000 FEW004 SCT008 BKN017 15/14 Q1023 TEMPO 3000 BR
  • 250800Z 29004KT 250V320 7000 FEW004 SCT009 BKN018 14/13 Q1023 TEMPO 3000 BR
  • 250730Z 33004KT 290V360 6000 -DZ FEW004 SCT012 BKN018 14/14 Q1023 TEMPO 3000 BR

TAF TAF LEBB
Valide du 25 à 06h jusqu'au 26 à 06h UTC


250500Z 2506/2606 32009KT 9999 BKN016 TX17/2514Z TN13/2506Z
TEMPO 2506/2518 BKN010
PROB40
TEMPO 2506/2513 4000 -DZ BR BKN004
Pas de NOTAMs connus pour ce terrain.



MET'MAP, la Météo Aéronautique d'un coup d'oeil ! - Copyright ORBIFLY Décembre 2007 - Disclaimer

ORBIFLY MET'MAP TEAM :

Programmation & Développement : Alexandra Zaïnal
Conception & Développement : Baudouin d'Aumeries
Co-Programmation & Développement : Marc-Olivier Méhu
Soutien technique & logistique : Manuel Goepfert

Contact : metmap@orbifly.com




SOURCES & CREDITS :

   NOAA